This is the latest recevied weather packets stored in our database for station/object SV2RCS-13. If no packets are shown the sender has not sent any weather packets the latest 10 day(s).
| Time | Temp. | Humidity | Pressure | Rain* | Wind** | Luminosity | Snow |
|---|---|---|---|---|---|---|---|
| 1777035413 | 16.11° C | 25% | 1011 hPa | - | - | - | - |
| 1777034813 | 16.11° C | 25% | 1011 hPa | - | - | - | - |
| 1777034213 | 15.56° C | 25% | 1011.2 hPa | - | - | - | - |
| 1777033613 | 16.11° C | 24% | 1011.3 hPa | - | - | - | - |
| 1777033013 | 15.56° C | 23% | 1011.4 hPa | - | - | - | - |
| 1777032413 | 16.11° C | 24% | 1011.5 hPa | - | - | - | - |
| 1777031813 | 16.11° C | 23% | 1011.6 hPa | - | - | - | - |
| 1777031213 | 16.11° C | 23% | 1011.7 hPa | - | - | - | - |
| 1777030613 | 16.11° C | 22% | 1011.8 hPa | - | - | - | - |
| 1777030013 | 16.11° C | 22% | 1011.9 hPa | - | - | - | - |
| 1777029413 | 16.11° C | 23% | 1011.9 hPa | - | - | - | - |
| 1777028813 | 15.56° C | 21% | 1012.2 hPa | - | - | - | - |
| 1777028213 | 16.11° C | 21% | 1012.3 hPa | - | - | - | - |
| 1777027613 | 16.11° C | 21% | 1012.2 hPa | - | - | - | - |
| 1777027013 | 16.11° C | 22% | 1012.3 hPa | - | - | - | - |
| 1777026413 | 15° C | 21% | 1012.6 hPa | - | - | - | - |
| 1777025813 | 16.11° C | 20% | 1012.6 hPa | - | - | - | - |
| 1777025213 | 16.11° C | 20% | 1012.7 hPa | - | - | - | - |
| 1777024613 | 16.11° C | 20% | 1012.9 hPa | - | - | - | - |
| 1777024013 | 16.67° C | 20% | 1012.9 hPa | - | - | - | - |
| 1777022816 | 16.67° C | 20% | 1012.9 hPa | - | - | - | - |
| 1777022213 | 17.22° C | 19% | 1012.7 hPa | - | - | - | - |
| 1777021613 | 18.89° C | 19% | 1012.5 hPa | - | - | - | - |
| 1777021013 | 19.44° C | 19% | 1012.3 hPa | - | - | - | - |
| 1777020413 | 19.44° C | 19% | 1012.3 hPa | - | - | - | - |
* Rain since midnight (hover to see other rain measurements)
** Current wind speed in m/s (hover to see current wind gust speed)